Terminal Aerodrome Forecast
Issued by NWS

Home | Current Version | Previous Version | Text Only | Print | Product List | Glossary On
Versions: 1 2 3 4 5 6 7 8 9 10 11 12 13 14 15 16
000
FTUS46 KSGX 020524
TAFPSP
TAF
KPSP 020524Z 0206/0306 32011KT P6SM BKN200
     FM020800 VRB06KT P6SM BKN200
     FM021800 10009KT P6SM SCT250
     FM030000 32012G22KT P6SM SCT250=

USA.gov is the U.S. government's official web portal to all federal, state and local government web resources and services.